createdAt,value
2018-08-19T00:00:42.008Z,102287.98
2018-08-19T00:01:42.423Z,102288.38
2018-08-19T00:02:42.782Z,102288.38
2018-08-19T00:03:43.010Z,102288.59
2018-08-19T00:04:43.272Z,102289.03
2018-08-19T00:05:44.046Z,102289.07
2018-08-19T00:06:44.361Z,102288.86
2018-08-19T00:07:44.696Z,102288.81
2018-08-19T00:08:45.384Z,102288.69
2018-08-19T00:09:45.743Z,102288.40
2018-08-19T00:10:46.103Z,102288.45
2018-08-19T00:11:46.710Z,102288.74
2018-08-19T00:12:47.018Z,102288.80
2018-08-19T00:13:47.364Z,102288.25
2018-08-19T00:14:47.744Z,102288.23
2018-08-19T00:15:48.130Z,102288.30
2018-08-19T00:16:48.487Z,102287.66
2018-08-19T00:17:48.841Z,102287.24
2018-08-19T00:18:49.196Z,102286.73
2018-08-19T00:19:49.519Z,102286.70
2018-08-19T00:20:49.823Z,102286.66
2018-08-19T00:21:50.386Z,102286.33
2018-08-19T00:22:49.597Z,102286.58
2018-08-19T00:23:51.492Z,102286.30
2018-08-19T00:24:51.896Z,102286.04
2018-08-19T00:25:52.533Z,102285.75
2018-08-19T00:26:52.831Z,102285.66
2018-08-19T00:27:53.153Z,102285.92
2018-08-19T00:28:53.420Z,102285.50
2018-08-19T00:29:53.721Z,102285.93
2018-08-19T00:30:54.116Z,102286.15
2018-08-19T00:31:54.660Z,102285.95
2018-08-19T00:32:55.028Z,102286.50
2018-08-19T00:33:55.430Z,102286.38
2018-08-19T00:34:55.851Z,102286.81
2018-08-19T00:35:56.177Z,102286.22
2018-08-19T00:36:56.537Z,102286.31
2018-08-19T00:37:56.944Z,102286.66
2018-08-19T00:38:05.816Z,102295.89
2018-08-19T00:39:06.965Z,102290.68
2018-08-19T00:40:07.425Z,102289.74
2018-08-19T00:41:08.292Z,102290.00
2018-08-19T00:42:08.769Z,102289.79
2018-08-19T00:43:09.170Z,102290.68
2018-08-19T00:44:09.595Z,102290.98
2018-08-19T00:45:08.997Z,102291.66
2018-08-19T00:46:10.955Z,102292.30
2018-08-19T00:47:11.364Z,102293.16
2018-08-19T00:48:11.946Z,102293.71
2018-08-19T00:49:12.333Z,102294.23
2018-08-19T00:50:14.637Z,102294.95
2018-08-19T00:51:13.034Z,102296.01
2018-08-19T00:52:13.820Z,102296.70
2018-08-19T00:53:14.199Z,102297.08
2018-08-19T00:54:14.458Z,102297.42
2018-08-19T00:55:14.797Z,102297.97
2018-08-19T00:56:15.104Z,102298.02
2018-08-19T00:57:15.520Z,102298.31
2018-08-19T00:58:16.010Z,102298.66
2018-08-19T00:59:16.402Z,102298.75
2018-08-19T01:00:16.718Z,102298.70
2018-08-19T01:01:17.282Z,102298.45
2018-08-19T01:02:17.610Z,102298.95
2018-08-19T01:03:17.849Z,102299.08
2018-08-19T01:04:18.023Z,102299.17
2018-08-19T01:05:18.451Z,102299.20
2018-08-19T01:06:18.956Z,102299.55
2018-08-19T01:07:19.368Z,102299.51
2018-08-19T01:08:20.257Z,102300.20
2018-08-19T01:09:20.993Z,102299.98
2018-08-19T01:10:21.277Z,102300.02
2018-08-19T01:11:21.607Z,102300.70
2018-08-19T01:12:21.936Z,102301.34
2018-08-19T01:13:22.254Z,102300.70
2018-08-19T01:14:22.345Z,102300.91
2018-08-19T01:15:22.542Z,102300.95
2018-08-19T01:16:23.525Z,102300.73
2018-08-19T01:17:23.970Z,102300.78
2018-08-19T01:18:24.390Z,102300.31
2018-08-19T01:19:24.751Z,102300.36
2018-08-19T01:20:25.036Z,102299.89
2018-08-19T01:21:25.320Z,102300.19
2018-08-19T01:22:25.664Z,102300.66
2018-08-19T01:23:26.138Z,102301.00
2018-08-19T01:23:34.205Z,102301.00
2018-08-19T01:24:35.538Z,102307.77
2018-08-19T01:25:35.835Z,102307.68
2018-08-19T01:26:35.862Z,102307.17
2018-08-19T01:27:36.163Z,102307.17
2018-08-19T01:28:36.536Z,102306.83
2018-08-19T01:29:36.847Z,102307.05
2018-08-19T01:30:37.340Z,102306.88
2018-08-19T01:31:37.622Z,102306.66
2018-08-19T01:32:37.973Z,102306.57
2018-08-19T01:33:38.267Z,102306.95
2018-08-19T01:34:38.589Z,102307.38
2018-08-19T01:35:38.943Z,102307.16
2018-08-19T01:36:39.246Z,102307.67
2018-08-19T01:37:39.493Z,102307.63
2018-08-19T01:38:38.855Z,102307.59
2018-08-19T01:39:40.389Z,102308.10
2018-08-19T01:40:41.322Z,102308.14
2018-08-19T01:41:40.655Z,102307.67
2018-08-19T01:42:42.031Z,102307.80
2018-08-19T01:43:42.890Z,102307.75
2018-08-19T01:44:43.122Z,102308.30
2018-08-19T01:45:43.473Z,102308.60
2018-08-19T01:46:44.054Z,102309.02
2018-08-19T01:47:44.281Z,102309.23
2018-08-19T01:48:44.572Z,102309.10
2018-08-19T01:49:44.869Z,102309.23
2018-08-19T01:50:45.149Z,102309.78
2018-08-19T01:51:45.585Z,102310.16
2018-08-19T01:52:45.945Z,102309.86
2018-08-19T01:53:46.584Z,102310.33
2018-08-19T01:54:46.982Z,102310.45
2018-08-19T01:55:47.393Z,102310.58
2018-08-19T01:56:48.339Z,102310.50
2018-08-19T01:57:48.874Z,102310.03
2018-08-19T01:58:49.489Z,102310.83
2018-08-19T01:59:50.589Z,102310.95
2018-08-19T02:00:50.831Z,102311.25
2018-08-19T02:01:51.115Z,102311.59
2018-08-19T02:02:51.394Z,102311.55
2018-08-19T02:03:51.723Z,102311.59
2018-08-19T02:04:52.073Z,102311.63
2018-08-19T02:05:52.360Z,102311.33
2018-08-19T02:06:52.676Z,102311.45
2018-08-19T02:07:52.935Z,102311.41
2018-08-19T02:08:53.496Z,102310.86
2018-08-19T02:09:02.184Z,102314.81
2018-08-19T02:10:02.819Z,102315.02
2018-08-19T02:11:03.149Z,102314.86
2018-08-19T02:12:03.581Z,102314.69
2018-08-19T02:13:04.156Z,102314.37
2018-08-19T02:14:04.696Z,102314.47
2018-08-19T02:15:05.601Z,102314.77
2018-08-19T02:16:06.124Z,102315.02
2018-08-19T02:17:06.396Z,102314.72
2018-08-19T02:18:06.688Z,102314.84
2018-08-19T02:19:07.046Z,102314.25
2018-08-19T02:20:07.298Z,102314.11
2018-08-19T02:21:08.232Z,102313.72
2018-08-19T02:22:08.469Z,102313.39
2018-08-19T02:23:08.802Z,102313.25
2018-08-19T02:24:09.600Z,102313.03
2018-08-19T02:25:10.130Z,102313.21
2018-08-19T02:26:10.497Z,102313.08
2018-08-19T02:27:10.836Z,102313.25
2018-08-19T02:28:11.820Z,102312.61
2018-08-19T02:29:12.090Z,102313.07
2018-08-19T02:30:12.558Z,102312.77
2018-08-19T02:31:12.908Z,102312.38
2018-08-19T02:32:13.139Z,102312.25
2018-08-19T02:33:13.790Z,102311.70
2018-08-19T02:34:14.155Z,102311.98
2018-08-19T02:35:14.527Z,102311.86
2018-08-19T02:36:14.804Z,102311.89
2018-08-19T02:37:15.125Z,102312.27
2018-08-19T02:38:15.757Z,102312.44
2018-08-19T02:39:16.059Z,102312.47
2018-08-19T02:40:16.389Z,102312.77
2018-08-19T02:41:16.811Z,102313.20
2018-08-19T02:42:17.067Z,102312.89
2018-08-19T02:43:17.371Z,102313.27
2018-08-19T02:44:17.766Z,102313.48
2018-08-19T02:45:18.075Z,102313.56
2018-08-19T02:46:18.381Z,102313.52
2018-08-19T02:47:19.322Z,102313.81
2018-08-19T02:48:20.030Z,102313.85
2018-08-19T02:49:20.341Z,102313.80
2018-08-19T02:50:20.718Z,102313.75
2018-08-19T02:51:20.975Z,102313.59
2018-08-19T02:52:21.260Z,102313.45
2018-08-19T02:53:21.684Z,102313.45
2018-08-19T02:53:31.657Z,102311.14
2018-08-19T02:54:31.915Z,102312.45
2018-08-19T02:55:33.163Z,102312.02
2018-08-19T02:56:33.612Z,102312.27
2018-08-19T02:57:33.930Z,102311.84
2018-08-19T02:58:34.307Z,102311.22
2018-08-19T02:59:34.578Z,102311.21
2018-08-19T03:00:34.982Z,102310.95
2018-08-19T03:01:35.432Z,102311.52
2018-08-19T03:02:35.796Z,102311.31
2018-08-19T03:03:36.681Z,102311.48
2018-08-19T03:04:37.138Z,102311.27
2018-08-19T03:05:37.452Z,102310.84
2018-08-19T03:06:37.459Z,102311.15
2018-08-19T03:07:39.037Z,102310.97
2018-08-19T03:08:38.427Z,102310.04
2018-08-19T03:09:38.731Z,102309.75
2018-08-19T03:10:38.980Z,102309.58
2018-08-19T03:11:39.377Z,102309.53
2018-08-19T03:12:39.612Z,102309.27
2018-08-19T03:13:39.822Z,102308.77
2018-08-19T03:14:40.745Z,102308.63
2018-08-19T03:15:40.976Z,102308.63
2018-08-19T03:16:41.272Z,102308.67
2018-08-19T03:17:41.570Z,102308.50
2018-08-19T03:18:42.415Z,102307.94
2018-08-19T03:19:42.661Z,102308.41
2018-08-19T03:20:43.065Z,102308.53
2018-08-19T03:21:43.703Z,102308.98
2018-08-19T03:22:44.577Z,102308.31
2018-08-19T03:23:44.862Z,102308.52
2018-08-19T03:24:45.115Z,102308.69
2018-08-19T03:25:45.451Z,102309.58
2018-08-19T03:26:45.732Z,102309.95
2018-08-19T03:27:45.964Z,102310.47
2018-08-19T03:28:46.253Z,102310.50
2018-08-19T03:29:46.709Z,102310.94
2018-08-19T03:30:46.931Z,102310.68
2018-08-19T03:31:46.986Z,102310.38
2018-08-19T03:32:47.220Z,102310.16
2018-08-19T03:33:47.540Z,102310.32
2018-08-19T03:34:48.096Z,102309.84
2018-08-19T03:35:48.310Z,102309.49
2018-08-19T03:36:02.415Z,102308.23
2018-08-19T03:37:03.617Z,102307.63
2018-08-19T03:38:03.947Z,102306.90
2018-08-19T03:39:03.100Z,102306.64
2018-08-19T03:40:04.326Z,102306.64
2018-08-19T03:41:04.538Z,102306.13
2018-08-19T03:42:04.778Z,102306.30
2018-08-19T03:43:05.602Z,102306.64
2018-08-19T03:44:05.855Z,102306.56
2018-08-19T03:45:06.602Z,102306.13
2018-08-19T03:46:06.916Z,102305.66
2018-08-19T03:47:07.181Z,102306.00
2018-08-19T03:48:07.437Z,102306.46
2018-08-19T03:49:07.713Z,102306.58
2018-08-19T03:50:07.975Z,102306.45
2018-08-19T03:51:08.217Z,102306.06
2018-08-19T03:52:08.491Z,102306.13
2018-08-19T03:53:08.858Z,102306.34
2018-08-19T03:54:09.691Z,102306.03
2018-08-19T03:55:10.332Z,102306.75
2018-08-19T03:56:10.833Z,102306.91
2018-08-19T03:57:11.126Z,102306.44
2018-08-19T03:58:11.365Z,102306.81
2018-08-19T03:59:11.696Z,102306.80
2018-08-19T04:00:12.983Z,102306.07
2018-08-19T04:01:12.307Z,102306.23
2018-08-19T04:02:12.595Z,102305.84
2018-08-19T04:03:13.037Z,102305.83
2018-08-19T04:04:13.308Z,102306.20
2018-08-19T04:05:13.697Z,102306.75
2018-08-19T04:06:14.031Z,102307.41
2018-08-19T04:07:14.274Z,102307.36
2018-08-19T04:08:14.664Z,102307.41
2018-08-19T04:09:13.813Z,102307.67
2018-08-19T04:10:15.103Z,102307.97
2018-08-19T04:11:15.362Z,102307.78
2018-08-19T04:12:16.081Z,102308.20
2018-08-19T04:13:16.409Z,102309.11
2018-08-19T04:14:16.679Z,102309.58
2018-08-19T04:15:16.934Z,102310.38
2018-08-19T04:16:17.404Z,102310.70
2018-08-19T04:17:17.758Z,102311.42
2018-08-19T04:18:18.683Z,102311.54
2018-08-19T04:19:18.950Z,102311.91
2018-08-19T04:20:19.237Z,102312.38
2018-08-19T04:20:27.918Z,102317.17
2018-08-19T04:21:28.560Z,102315.72
2018-08-19T04:22:29.120Z,102315.66
2018-08-19T04:23:29.367Z,102315.84
2018-08-19T04:24:29.641Z,102315.50
2018-08-19T04:25:29.827Z,102315.89
2018-08-19T04:26:30.068Z,102315.89
2018-08-19T04:27:30.292Z,102315.20
2018-08-19T04:28:30.639Z,102314.78
2018-08-19T04:29:30.890Z,102314.87
2018-08-19T04:30:31.242Z,102314.98
2018-08-19T04:31:30.448Z,102315.07
2018-08-19T04:32:31.716Z,102315.24
2018-08-19T04:33:32.387Z,102314.51
2018-08-19T04:34:32.822Z,102314.72
2018-08-19T04:35:33.049Z,102314.66
2018-08-19T04:36:33.271Z,102314.75
2018-08-19T04:37:33.532Z,102314.78
2018-08-19T04:38:34.034Z,102314.64
2018-08-19T04:39:34.332Z,102314.59
2018-08-19T04:40:34.586Z,102314.28
2018-08-19T04:41:34.817Z,102313.56
2018-08-19T04:42:35.091Z,102313.67
2018-08-19T04:43:35.448Z,102313.28
2018-08-19T04:44:36.127Z,102313.28
2018-08-19T04:45:37.224Z,102313.48
2018-08-19T04:46:36.492Z,102313.32
2018-08-19T04:47:36.778Z,102313.15
2018-08-19T04:48:37.057Z,102312.89
2018-08-19T04:49:37.387Z,102313.35
2018-08-19T04:50:37.709Z,102313.52
2018-08-19T04:51:38.125Z,102313.19
2018-08-19T04:52:38.382Z,102313.35
2018-08-19T04:53:38.653Z,102313.35
2018-08-19T04:54:38.930Z,102313.27
2018-08-19T04:55:39.257Z,102313.44
2018-08-19T04:56:39.536Z,102313.19
2018-08-19T04:57:39.812Z,102312.93
2018-08-19T04:58:40.054Z,102313.09
2018-08-19T04:59:40.267Z,102313.74
2018-08-19T05:00:40.628Z,102313.52
2018-08-19T05:01:40.880Z,102313.77
2018-08-19T05:02:41.338Z,102314.45
2018-08-19T05:03:41.781Z,102314.37
2018-08-19T05:04:41.075Z,102314.88
2018-08-19T05:05:42.379Z,102315.14
2018-08-19T05:06:42.862Z,102315.34
2018-08-19T05:07:42.169Z,102315.09
2018-08-19T05:07:50.940Z,102321.08
2018-08-19T05:08:51.089Z,102309.56
2018-08-19T05:09:52.315Z,102309.39
2018-08-19T05:10:52.563Z,102309.56
2018-08-19T05:11:52.808Z,102309.81
2018-08-19T05:12:53.020Z,102310.20
2018-08-19T05:13:53.860Z,102311.06
2018-08-19T05:14:53.054Z,102311.31
2018-08-19T05:15:53.324Z,102311.36
2018-08-19T05:16:55.058Z,102311.70
2018-08-19T05:17:55.304Z,102311.99
2018-08-19T05:18:55.667Z,102312.93
2018-08-19T05:19:55.953Z,102313.19
2018-08-19T05:20:56.225Z,102313.35
2018-08-19T05:21:56.604Z,102313.78
2018-08-19T05:22:56.933Z,102314.41
2018-08-19T05:23:57.185Z,102314.63
2018-08-19T05:24:57.443Z,102315.22
2018-08-19T05:25:58.043Z,102315.31
2018-08-19T05:26:58.292Z,102316.16
2018-08-19T05:27:58.716Z,102316.26
2018-08-19T05:28:58.985Z,102315.98
2018-08-19T05:29:59.219Z,102316.02
2018-08-19T05:30:58.562Z,102315.98
2018-08-19T05:31:59.824Z,102316.09
2018-08-19T05:33:00.134Z,102316.23
2018-08-19T05:34:00.473Z,102316.02
2018-08-19T05:35:00.800Z,102315.89
2018-08-19T05:36:01.082Z,102316.62
2018-08-19T05:37:01.481Z,102316.91
2018-08-19T05:38:01.861Z,102317.22
2018-08-19T05:39:01.271Z,102317.68
2018-08-19T05:40:02.480Z,102317.95
2018-08-19T05:41:02.691Z,102317.73
2018-08-19T05:42:02.944Z,102317.70
2018-08-19T05:43:03.207Z,102317.63
2018-08-19T05:44:03.494Z,102317.03
2018-08-19T05:45:04.385Z,102317.70
2018-08-19T05:46:04.691Z,102317.84
2018-08-19T05:47:05.066Z,102317.68
2018-08-19T05:48:04.891Z,102317.68
2018-08-19T05:49:06.499Z,102317.41
2018-08-19T05:50:07.018Z,102317.48
2018-08-19T05:51:07.250Z,102316.51
2018-08-19T05:52:07.540Z,102316.16
2018-08-19T05:53:07.779Z,102315.39
2018-08-19T05:54:08.368Z,102314.61
2018-08-19T05:55:07.784Z,102313.90
2018-08-19T05:56:09.124Z,102312.89
2018-08-19T05:56:17.958Z,102304.25
2018-08-19T05:57:19.131Z,102299.00
2018-08-19T05:58:19.956Z,102298.83
2018-08-19T05:59:20.275Z,102299.18
2018-08-19T06:00:20.611Z,102299.22
2018-08-19T06:01:20.798Z,102298.89
2018-08-19T06:02:21.088Z,102299.59
2018-08-19T06:03:21.321Z,102298.89
2018-08-19T06:04:21.594Z,102299.03
2018-08-19T06:05:20.828Z,102298.88
2018-08-19T06:06:22.265Z,102299.22
2018-08-19T06:07:22.605Z,102298.41
2018-08-19T06:08:23.368Z,102298.34
2018-08-19T06:09:23.743Z,102298.34
2018-08-19T06:10:24.002Z,102298.37
2018-08-19T06:11:24.552Z,102298.71
2018-08-19T06:12:25.314Z,102299.34
2018-08-19T06:13:25.666Z,102299.41
2018-08-19T06:14:25.912Z,102299.05
2018-08-19T06:15:26.140Z,102299.05
2018-08-19T06:16:26.386Z,102299.60
2018-08-19T06:17:26.955Z,102299.95
2018-08-19T06:18:27.285Z,102299.91
2018-08-19T06:19:27.523Z,102300.08
2018-08-19T06:20:27.852Z,102299.72
2018-08-19T06:21:28.103Z,102299.72
2018-08-19T06:22:28.932Z,102299.52
2018-08-19T06:23:29.199Z,102299.36
2018-08-19T06:24:29.902Z,102299.36
2018-08-19T06:25:30.344Z,102299.17
2018-08-19T06:26:30.807Z,102299.70
2018-08-19T06:27:30.998Z,102299.38
2018-08-19T06:28:31.297Z,102299.76
2018-08-19T06:29:31.869Z,102299.45
2018-08-19T06:30:32.133Z,102299.88
2018-08-19T06:31:32.856Z,102299.76
2018-08-19T06:32:33.196Z,102299.91
2018-08-19T06:33:33.622Z,102300.08
2018-08-19T06:34:34.030Z,102300.24
2018-08-19T06:35:33.242Z,102300.28
2018-08-19T06:36:34.585Z,102299.81
2018-08-19T06:37:33.751Z,102300.87
2018-08-19T06:38:35.011Z,102300.67
2018-08-19T06:39:35.307Z,102300.37
2018-08-19T06:40:35.612Z,102300.34
2018-08-19T06:41:35.899Z,102299.31
2018-08-19T06:42:36.125Z,102299.36
2018-08-19T06:43:36.485Z,102299.33
2018-08-19T06:43:45.235Z,102296.75
2018-08-19T06:44:46.433Z,102297.87
2018-08-19T06:45:46.955Z,102297.81
2018-08-19T06:46:47.177Z,102297.26
2018-08-19T06:47:46.468Z,102297.34
2018-08-19T06:48:47.680Z,102297.00
2018-08-19T06:49:47.918Z,102296.34
2018-08-19T06:50:48.264Z,102296.09
2018-08-19T06:51:48.688Z,102295.77
2018-08-19T06:52:49.476Z,102295.21
2018-08-19T06:53:49.845Z,102294.23
2018-08-19T06:54:50.201Z,102293.69
2018-08-19T06:55:50.511Z,102293.86
2018-08-19T06:56:50.770Z,102293.30
2018-08-19T06:57:51.029Z,102292.91
2018-08-19T06:58:51.273Z,102291.06
2018-08-19T06:59:51.531Z,102290.97
2018-08-19T07:00:51.767Z,102290.23
2018-08-19T07:01:52.036Z,102289.37
2018-08-19T07:02:52.422Z,102288.61
2018-08-19T07:03:52.931Z,102287.91
2018-08-19T07:04:52.194Z,102287.39
2018-08-19T07:05:53.533Z,102287.25
2018-08-19T07:06:53.939Z,102286.48
2018-08-19T07:07:54.277Z,102286.19
2018-08-19T07:08:54.692Z,102285.62
2018-08-19T07:09:55.118Z,102285.56
2018-08-19T07:10:55.471Z,102284.84
2018-08-19T07:11:55.910Z,102284.65
2018-08-19T07:12:55.381Z,102284.23
2018-08-19T07:13:56.709Z,102283.59
2018-08-19T07:14:55.982Z,102283.30
2018-08-19T07:15:57.275Z,102282.39
2018-08-19T07:16:57.813Z,102281.98
2018-08-19T07:17:58.810Z,102281.67
2018-08-19T07:18:59.799Z,102280.69
2018-08-19T07:20:00.515Z,102280.09
2018-08-19T07:20:59.906Z,102280.05
2018-08-19T07:22:01.190Z,102279.61
2018-08-19T07:23:01.436Z,102279.16
2018-08-19T07:24:01.755Z,102278.61
2018-08-19T07:25:02.031Z,102278.24
2018-08-19T07:26:02.380Z,102278.25
2018-08-19T07:27:02.664Z,102277.30
2018-08-19T07:28:02.943Z,102276.71
2018-08-19T07:29:03.015Z,102276.02
2018-08-19T07:30:03.463Z,102275.66
2018-08-19T07:31:02.745Z,102275.39
2018-08-19T07:32:03.994Z,102274.47
2018-08-19T07:33:04.633Z,102274.17
2018-08-19T07:33:13.341Z,102271.17
2018-08-19T07:34:13.722Z,102260.39
2018-08-19T07:35:13.975Z,102260.84
2018-08-19T07:36:14.691Z,102261.27
2018-08-19T07:37:15.069Z,102261.90
2018-08-19T07:38:14.275Z,102261.72
2018-08-19T07:39:15.549Z,102262.36
2018-08-19T07:40:15.853Z,102262.28
2018-08-19T07:41:16.272Z,102261.94
2018-08-19T07:42:16.631Z,102262.19
2018-08-19T07:43:15.811Z,102261.84
2018-08-19T07:44:17.100Z,102261.66
2018-08-19T07:45:17.338Z,102261.07
2018-08-19T07:46:17.648Z,102260.86
2018-08-19T07:47:18.253Z,102260.75
2018-08-19T07:48:18.589Z,102260.92
2018-08-19T07:49:18.845Z,102260.72
2018-08-19T07:50:19.257Z,102260.39
2018-08-19T07:51:19.645Z,102260.29
2018-08-19T07:52:18.956Z,102260.60
2018-08-19T07:53:20.306Z,102260.56
2018-08-19T07:54:20.829Z,102260.11
2018-08-19T07:55:20.123Z,102260.07
2018-08-19T07:56:21.433Z,102260.31
2018-08-19T07:57:22.072Z,102259.89
2018-08-19T07:58:22.363Z,102259.89
2018-08-19T07:59:22.604Z,102259.20
2018-08-19T08:00:22.880Z,102258.63
2018-08-19T08:01:22.189Z,102258.48
2018-08-19T08:02:24.571Z,102256.98
2018-08-19T08:03:22.733Z,102257.37
2018-08-19T08:04:24.089Z,102256.15
2018-08-19T08:05:24.523Z,102255.95
2018-08-19T08:06:24.807Z,102255.57
2018-08-19T08:07:25.305Z,102255.86
2018-08-19T08:08:25.694Z,102255.86
2018-08-19T08:09:26.012Z,102256.00
2018-08-19T08:10:26.445Z,102256.29
2018-08-19T08:11:27.048Z,102256.15
2018-08-19T08:12:28.427Z,102256.15
2018-08-19T08:13:27.778Z,102255.59
2018-08-19T08:14:28.172Z,102255.38
2018-08-19T08:15:28.420Z,102255.34
2018-08-19T08:16:28.680Z,102255.20
2018-08-19T08:17:28.969Z,102255.12
2018-08-19T08:18:29.247Z,102254.81
2018-08-19T08:19:29.660Z,102254.63
2018-08-19T08:20:29.197Z,102253.89
2018-08-19T08:21:30.855Z,102253.38
2018-08-19T08:22:30.561Z,102253.13
2018-08-19T08:23:31.903Z,102252.79
2018-08-19T08:24:32.361Z,102252.10
2018-08-19T08:25:53.770Z,102244.39
2018-08-19T08:26:54.951Z,102241.11
2018-08-19T08:27:55.279Z,102241.38
2018-08-19T08:28:55.758Z,102241.21
2018-08-19T08:29:56.080Z,102241.11
2018-08-19T08:30:56.418Z,102240.86
2018-08-19T08:31:56.731Z,102240.62
2018-08-19T08:32:57.025Z,102240.30
2018-08-19T08:33:57.515Z,102240.50
2018-08-19T08:34:56.876Z,102240.58
2018-08-19T08:35:58.188Z,102240.59
2018-08-19T08:36:58.694Z,102240.47
2018-08-19T08:37:59.008Z,102240.88
2018-08-19T08:38:58.406Z,102240.98
2018-08-19T08:39:59.935Z,102240.88
2018-08-19T08:41:00.687Z,102240.95
2018-08-19T08:42:01.103Z,102240.48
2018-08-19T08:43:01.858Z,102240.31
2018-08-19T08:44:02.380Z,102240.54
2018-08-19T08:45:02.653Z,102240.33
2018-08-19T08:46:02.937Z,102239.69
2018-08-19T08:47:03.487Z,102239.36
2018-08-19T08:48:03.820Z,102239.02
2018-08-19T08:49:03.019Z,102239.20
2018-08-19T08:50:04.319Z,102238.83
2018-08-19T08:51:04.610Z,102239.20
2018-08-19T08:52:04.859Z,102238.49
2018-08-19T08:53:05.100Z,102238.22
2018-08-19T08:54:05.357Z,102238.07
2018-08-19T08:55:05.638Z,102237.63
2018-08-19T08:56:06.167Z,102237.38
2018-08-19T08:57:06.412Z,102237.30
2018-08-19T08:58:06.686Z,102237.25
2018-08-19T08:59:07.004Z,102236.81
2018-08-19T09:00:07.251Z,102236.70
2018-08-19T09:01:07.665Z,102236.03
2018-08-19T09:02:07.981Z,102235.74
2018-08-19T09:03:08.313Z,102235.39
2018-08-19T09:04:07.495Z,102234.34
2018-08-19T09:05:08.806Z,102233.34
2018-08-19T09:06:09.129Z,102232.52
2018-08-19T09:07:09.396Z,102232.12
2018-08-19T09:08:09.663Z,102231.33
2018-08-19T09:09:09.962Z,102230.78
2018-08-19T09:10:10.223Z,102230.03
2018-08-19T09:11:10.605Z,102229.43
2018-08-19T09:12:11.068Z,102228.54
2018-08-19T09:13:11.279Z,102227.52
2018-08-19T09:13:20.110Z,102215.52
2018-08-19T09:14:20.664Z,102223.04
2018-08-19T09:15:20.758Z,102222.73
2018-08-19T09:16:21.024Z,102222.02
2018-08-19T09:17:21.300Z,102221.14
2018-08-19T09:18:21.549Z,102220.55
2018-08-19T09:19:22.197Z,102220.54
2018-08-19T09:20:21.458Z,102220.21
2018-08-19T09:21:21.720Z,102219.09
2018-08-19T09:22:23.042Z,102218.11
2018-08-19T09:23:23.351Z,102216.75
2018-08-19T09:24:22.589Z,102216.30
2018-08-19T09:25:24.007Z,102215.58
2018-08-19T09:26:24.412Z,102214.89
2018-08-19T09:27:24.843Z,102214.34
2018-08-19T09:28:26.087Z,102213.92
2018-08-19T09:29:25.472Z,102212.72
2018-08-19T09:30:25.854Z,102211.31
2018-08-19T09:31:26.226Z,102210.56
2018-08-19T09:32:26.774Z,102209.25
2018-08-19T09:33:27.093Z,102208.11
2018-08-19T09:34:27.458Z,102206.84
2018-08-19T09:35:27.711Z,102205.63
2018-08-19T09:36:27.999Z,102204.13
2018-08-19T09:37:28.291Z,102202.83
2018-08-19T09:38:28.570Z,102201.54
2018-08-19T09:39:28.931Z,102200.41
2018-08-19T09:40:29.392Z,102199.44
2018-08-19T09:41:29.730Z,102197.91
2018-08-19T09:42:30.018Z,102196.02
2018-08-19T09:43:30.275Z,102195.34
2018-08-19T09:44:31.048Z,102194.21
2018-08-19T09:45:31.463Z,102192.97
2018-08-19T09:46:31.803Z,102191.66
2018-08-19T09:47:32.129Z,102190.38
2018-08-19T09:48:31.461Z,102188.44
2018-08-19T09:49:32.702Z,102187.50
2018-08-19T09:50:33.012Z,102185.89
2018-08-19T09:51:33.581Z,102184.91
2018-08-19T09:52:33.806Z,102183.25
2018-08-19T09:53:34.127Z,102181.89
2018-08-19T09:54:34.769Z,102180.48
2018-08-19T09:55:35.159Z,102178.67
2018-08-19T09:56:35.397Z,102177.56
2018-08-19T09:57:35.802Z,102176.42
2018-08-19T09:58:35.076Z,102175.13
2018-08-19T09:59:36.556Z,102174.07
2018-08-19T10:00:36.914Z,102172.78
2018-08-19T10:01:37.327Z,102171.79
2018-08-19T10:01:45.962Z,102156.08
2018-08-19T10:02:47.002Z,102156.08
2018-08-19T10:03:47.330Z,102155.45
2018-08-19T10:04:48.659Z,102155.13
2018-08-19T10:05:47.932Z,102155.05
2018-08-19T10:06:48.240Z,102154.53
2018-08-19T10:07:48.500Z,102153.84
2018-08-19T10:08:47.754Z,102153.23
2018-08-19T10:09:49.567Z,102152.61
2018-08-19T10:10:49.033Z,102152.14
2018-08-19T10:11:50.381Z,102152.05
2018-08-19T10:12:50.772Z,102151.55
2018-08-19T10:13:50.526Z,102150.91
2018-08-19T10:14:52.928Z,102150.94
2018-08-19T10:15:52.285Z,102150.22
2018-08-19T10:16:52.752Z,102149.95
2018-08-19T10:17:53.046Z,102149.33
2018-08-19T10:18:53.327Z,102148.41
2018-08-19T10:19:53.622Z,102147.97
2018-08-19T10:20:53.933Z,102146.80
2018-08-19T10:21:54.369Z,102146.15
2018-08-19T10:22:54.719Z,102144.84
2018-08-19T10:23:54.986Z,102144.01
2018-08-19T10:24:55.260Z,102143.05
2018-08-19T10:25:55.499Z,102141.87
2018-08-19T10:26:55.776Z,102140.71
2018-08-19T10:27:56.094Z,102139.72
2018-08-19T10:28:56.410Z,102139.10
2018-08-19T10:29:56.924Z,102138.03
2018-08-19T10:30:57.194Z,102137.23
2018-08-19T10:31:57.555Z,102136.30
2018-08-19T10:32:57.964Z,102135.19
2018-08-19T10:33:58.300Z,102134.53
2018-08-19T10:34:58.594Z,102133.36
2018-08-19T10:35:58.897Z,102132.67
2018-08-19T10:36:59.471Z,102131.36
2018-08-19T10:37:59.804Z,102130.28
2018-08-19T10:39:00.120Z,102128.83
2018-08-19T10:40:00.478Z,102127.34
2018-08-19T10:41:00.896Z,102126.05
2018-08-19T10:42:01.384Z,102124.73
2018-08-19T10:43:01.752Z,102123.27
2018-08-19T10:44:02.640Z,102121.95
2018-08-19T10:45:02.948Z,102121.01
2018-08-19T10:46:03.648Z,102119.09
2018-08-19T10:47:02.893Z,102118.33
2018-08-19T10:48:04.547Z,102117.11
2018-08-19T10:49:04.850Z,102115.69
2018-08-19T10:49:13.799Z,102091.13
2018-08-19T10:50:14.189Z,102087.84
2018-08-19T10:51:15.628Z,102087.92
2018-08-19T10:52:15.985Z,102087.64
2018-08-19T10:53:16.344Z,102087.06
2018-08-19T10:54:15.574Z,102086.72
2018-08-19T10:55:16.823Z,102085.71
2018-08-19T10:56:17.055Z,102085.27
2018-08-19T10:57:17.317Z,102084.86
2018-08-19T10:58:17.623Z,102084.07
2018-08-19T10:59:17.890Z,102083.42
2018-08-19T11:00:18.146Z,102082.81
2018-08-19T11:01:18.847Z,102082.38
2018-08-19T11:02:19.106Z,102082.28
2018-08-19T11:03:19.695Z,102082.22
2018-08-19T11:04:20.043Z,102082.02
2018-08-19T11:05:20.323Z,102080.95
2018-08-19T11:06:20.545Z,102080.02
2018-08-19T11:07:20.821Z,102079.08
2018-08-19T11:08:21.109Z,102078.44
2018-08-19T11:09:21.705Z,102077.91
2018-08-19T11:10:22.133Z,102077.81
2018-08-19T11:11:22.757Z,102076.77
2018-08-19T11:12:23.025Z,102076.42
2018-08-19T11:13:23.378Z,102075.50
2018-08-19T11:14:22.642Z,102074.52
2018-08-19T11:15:23.910Z,102073.38
2018-08-19T11:16:24.183Z,102072.69
2018-08-19T11:17:24.406Z,102071.23
2018-08-19T11:18:24.689Z,102070.15